Time;durP1;ratioP1;P1;durP2;ratioP2;P2;SDS_P1;SDS_P2;PMS_P1;PMS_P2;Temp;Humidity;BMP_temperature;BMP_pressure;BME280_temperature;BME280_humidity;BME280_pressure;Samples;Min_cycle;Max_cycle;Signal;HPM_P1;HPM_P2
2021/08/02 00:01:09;;;;;;;20.07;15.30;;;13.70;99.90;;;;;;4995766;28;20712;-77
2021/08/02 00:03:40;;;;;;;18.77;16.00;;;13.70;99.90;;;;;;5022122;28;20351;-78
2021/08/02 00:06:08;;;;;;;16.67;13.93;;;13.80;99.90;;;;;;5006032;28;20254;-78
2021/08/02 00:08:34;;;;;;;17.73;14.40;;;13.80;99.90;;;;;;5002132;28;20174;-78
2021/08/02 00:11:01;;;;;;;15.63;14.07;;;13.70;99.90;;;;;;5019050;28;20182;-78
2021/08/02 00:13:33;;;;;;;20.63;15.37;;;13.70;99.90;;;;;;5019216;28;20178;-78
2021/08/02 00:16:03;;;;;;;16.30;14.60;;;13.70;99.90;;;;;;5015582;28;20186;-78
2021/08/02 00:18:31;;;;;;;15.90;14.23;;;13.60;99.90;;;;;;5019965;28;20195;-77
2021/08/02 00:21:00;;;;;;;16.63;14.93;;;13.60;99.90;;;;;;5019518;28;20195;-78
2021/08/02 00:23:27;;;;;;;16.53;14.53;;;13.70;99.90;;;;;;5019899;28;20190;-78
2021/08/02 00:25:54;;;;;;;15.23;13.77;;;13.50;99.90;;;;;;5019962;28;20214;-78
2021/08/02 00:28:21;;;;;;;15.17;13.63;;;13.60;99.90;;;;;;5006960;28;20183;-78
2021/08/02 00:30:47;;;;;;;15.90;14.23;;;13.60;99.90;;;;;;5019934;28;20179;-78
2021/08/02 00:33:13;;;;;;;15.10;13.70;;;13.60;99.90;;;;;;5019826;28;20258;-78
2021/08/02 00:36:05;;;;;;;16.33;14.63;;;13.60;99.90;;;;;;5019638;28;20213;-78
2021/08/02 00:38:51;;;;;;;15.43;13.93;;;13.50;99.90;;;;;;5008498;28;20219;-78
2021/08/02 00:41:45;;;;;;;16.50;14.23;;;13.50;99.90;;;;;;5019734;28;20242;-78
2021/08/02 00:44:45;;;;;;;16.00;14.37;;;13.40;99.90;;;;;;5011029;28;20186;-78
2021/08/02 00:47:17;;;;;;;16.60;13.87;;;13.40;99.90;;;;;;5009763;28;20195;-77
2021/08/02 00:49:50;;;;;;;19.63;15.17;;;13.40;99.90;;;;;;5021025;28;20180;-77
2021/08/02 00:52:20;;;;;;;16.20;14.50;;;13.40;99.90;;;;;;5014157;28;20510;-77
2021/08/02 00:54:47;;;;;;;15.80;14.20;;;13.50;99.90;;;;;;5020859;28;20175;-78
2021/08/02 00:57:18;;;;;;;15.23;13.77;;;13.50;99.90;;;;;;5018766;28;20210;-77
2021/08/02 00:59:44;;;;;;;17.43;14.33;;;13.50;99.90;;;;;;5020419;28;20253;-77
2021/08/02 01:02:11;;;;;;;17.50;13.47;;;13.50;99.90;;;;;;5019473;28;20182;-78
2021/08/02 01:04:38;;;;;;;16.60;14.10;;;13.50;99.90;;;;;;5019950;28;20175;-78
2021/08/02 01:07:08;;;;;;;17.83;12.40;;;13.50;99.90;;;;;;5019172;28;20191;-78
2021/08/02 01:09:36;;;;;;;16.47;13.73;;;13.50;99.90;;;;;;5018661;28;20248;-78
2021/08/02 01:12:06;;;;;;;17.50;13.83;;;13.50;99.90;;;;;;5019920;28;20670;-79
2021/08/02 01:14:33;;;;;;;15.70;14.00;;;13.40;99.90;;;;;;5001200;28;20190;-78
2021/08/02 01:16:59;;;;;;;16.27;14.60;;;13.40;99.90;;;;;;5015226;28;20231;-79
2021/08/02 01:19:25;;;;;;;14.33;12.90;;;13.40;99.90;;;;;;5018436;28;20239;-78
2021/08/02 01:21:59;;;;;;;15.27;12.83;;;13.40;99.90;;;;;;5003668;28;20187;-78
2021/08/02 01:24:26;;;;;;;14.67;12.93;;;13.40;99.90;;;;;;5000495;28;20189;-77
2021/08/02 01:26:57;;;;;;;13.23;12.03;;;13.40;99.90;;;;;;5016804;28;20203;-78
2021/08/02 01:30:01;;;;;;;14.57;13.07;;;13.40;99.90;;;;;;5015327;28;20186;-78
2021/08/02 01:32:27;;;;;;;15.00;13.17;;;13.40;99.90;;;;;;5020729;28;20178;-77
2021/08/02 01:34:53;;;;;;;14.40;13.10;;;13.40;99.90;;;;;;5016233;28;20649;-79
2021/08/02 01:37:18;;;;;;;14.13;12.73;;;13.50;99.90;;;;;;4998328;28;20613;-78
2021/08/02 01:39:52;;;;;;;14.50;13.00;;;13.50;99.90;;;;;;4999709;28;20199;-79
2021/08/02 01:42:18;;;;;;;15.23;12.77;;;13.50;99.90;;;;;;5022092;28;20182;-78
2021/08/02 01:44:44;;;;;;;13.37;12.07;;;13.50;99.90;;;;;;5006367;28;20179;-78
2021/08/02 01:47:45;;;;;;;13.40;12.13;;;13.50;99.90;;;;;;5005272;28;20540;-78
2021/08/02 01:50:35;;;;;;;14.73;13.07;;;13.50;99.90;;;;;;5009190;28;20195;-78
2021/08/02 01:53:28;;;;;;;14.63;13.23;;;13.50;99.90;;;;;;5004978;28;20179;-79
2021/08/02 01:56:22;;;;;;;15.23;13.73;;;13.50;99.90;;;;;;5018627;28;20187;-78
2021/08/02 01:58:53;;;;;;;15.60;14.00;;;13.50;99.90;;;;;;5002873;28;20233;-78
2021/08/02 02:01:22;;;;;;;18.20;15.07;;;13.60;99.90;;;;;;5005495;28;20175;-78
2021/08/02 02:03:49;;;;;;;13.73;12.33;;;13.50;99.90;;;;;;5016692;28;20902;-76
2021/08/02 02:06:16;;;;;;;12.90;11.80;;;13.50;99.90;;;;;;5014214;28;20249;-77
2021/08/02 02:08:53;;;;;;;14.90;12.30;;;13.40;99.90;;;;;;5011609;28;20187;-77
2021/08/02 02:11:21;;;;;;;15.20;13.70;;;13.20;99.90;;;;;;5006172;28;20246;-77
2021/08/02 02:13:51;;;;;;;14.60;13.20;;;13.20;99.90;;;;;;5010411;28;20183;-79
2021/08/02 02:16:19;;;;;;;14.90;13.10;;;13.20;99.90;;;;;;5008389;28;20211;-78
2021/08/02 02:18:49;;;;;;;15.90;13.57;;;13.20;99.90;;;;;;5014187;28;20186;-77
2021/08/02 02:21:19;;;;;;;14.50;13.10;;;13.30;99.90;;;;;;5006406;28;20176;-77
2021/08/02 02:23:46;;;;;;;15.17;13.57;;;13.20;99.90;;;;;;5017120;28;20188;-76
2021/08/02 02:26:12;;;;;;;16.30;14.20;;;13.20;99.90;;;;;;5008442;28;20706;-77
2021/08/02 02:28:39;;;;;;;18.37;13.97;;;13.30;99.90;;;;;;5014989;28;20253;-77
2021/08/02 02:31:07;;;;;;;14.87;13.23;;;13.30;99.90;;;;;;5014236;28;20181;-77
2021/08/02 02:33:34;;;;;;;16.87;13.27;;;13.20;99.90;;;;;;5014467;28;20175;-77
2021/08/02 02:36:02;;;;;;;15.60;12.53;;;13.30;99.90;;;;;;5012824;28;20198;-77
2021/08/02 02:38:28;;;;;;;13.90;12.13;;;13.30;99.90;;;;;;5014033;28;20174;-76
2021/08/02 02:40:55;;;;;;;19.00;13.77;;;13.30;99.90;;;;;;5014017;28;20195;-77
2021/08/02 02:43:21;;;;;;;14.47;12.97;;;13.30;99.90;;;;;;5013311;28;20184;-77
2021/08/02 02:45:48;;;;;;;14.97;12.33;;;13.30;99.90;;;;;;5014340;28;20552;-76
2021/08/02 02:48:16;;;;;;;14.97;12.87;;;13.30;99.90;;;;;;5015515;28;20218;-77
2021/08/02 02:50:45;;;;;;;14.13;11.83;;;13.30;99.90;;;;;;5015710;28;20183;-77
2021/08/02 02:53:11;;;;;;;14.53;13.03;;;13.30;99.90;;;;;;5015720;28;20183;-77
2021/08/02 02:55:38;;;;;;;14.33;12.90;;;13.30;99.90;;;;;;5015479;28;20175;-76
2021/08/02 02:58:04;;;;;;;14.37;12.40;;;13.20;99.90;;;;;;5014049;28;20297;-77
2021/08/02 03:00:30;;;;;;;14.00;12.57;;;13.20;99.90;;;;;;5000670;28;20645;-77
2021/08/02 03:02:58;;;;;;;14.27;12.87;;;13.20;99.90;;;;;;4997788;28;20186;-77
2021/08/02 03:05:28;;;;;;;14.70;13.27;;;13.20;99.90;;;;;;5015444;28;20241;-77
2021/08/02 03:07:57;;;;;;;16.37;13.43;;;13.20;99.90;;;;;;5003288;28;20202;-77
2021/08/02 03:10:25;;;;;;;15.23;13.73;;;13.30;99.90;;;;;;5015443;28;20195;-76
2021/08/02 03:12:51;;;;;;;16.93;13.97;;;13.30;99.90;;;;;;5030562;28;20270;-76
2021/08/02 03:15:17;;;;;;;16.73;13.60;;;13.30;99.90;;;;;;5006620;28;20190;-77
2021/08/02 03:17:44;;;;;;;16.27;13.37;;;13.30;99.90;;;;;;5014915;28;20218;-77
2021/08/02 03:20:11;;;;;;;15.23;13.40;;;13.30;99.90;;;;;;5015089;28;20199;-76
2021/08/02 03:22:45;;;;;;;14.60;13.17;;;13.30;99.90;;;;;;5014994;28;20181;-77
2021/08/02 03:25:45;;;;;;;14.47;12.90;;;13.30;99.90;;;;;;5015008;28;20178;-77
2021/08/02 03:28:32;;;;;;;16.90;12.70;;;13.30;99.90;;;;;;5014952;28;20300;-77
2021/08/02 03:31:01;;;;;;;16.83;12.13;;;13.30;99.90;;;;;;5018372;28;20302;-77
2021/08/02 03:33:34;;;;;;;13.97;12.53;;;13.30;99.90;;;;;;5027949;28;20178;-77
2021/08/02 03:36:04;;;;;;;13.70;12.20;;;13.30;99.90;;;;;;5019083;28;20233;-78
2021/08/02 03:38:30;;;;;;;12.80;11.40;;;13.20;99.90;;;;;;5019383;28;20184;-77
2021/08/02 03:40:57;;;;;;;14.63;12.10;;;13.20;99.90;;;;;;5019259;28;20202;-77
2021/08/02 03:43:23;;;;;;;14.37;12.83;;;13.30;99.90;;;;;;5019175;28;20526;-77
2021/08/02 03:45:50;;;;;;;13.90;12.43;;;13.20;99.90;;;;;;5009687;28;20191;-77
2021/08/02 03:48:19;;;;;;;15.17;13.30;;;13.30;99.90;;;;;;5011554;28;20226;-77
2021/08/02 03:50:46;;;;;;;15.43;12.00;;;13.30;99.90;;;;;;5013125;28;20738;-77
2021/08/02 03:53:12;;;;;;;14.60;13.03;;;13.40;99.90;;;;;;5012790;28;20190;-77
2021/08/02 03:55:38;;;;;;;13.87;12.10;;;13.40;99.90;;;;;;5014322;28;20179;-77
2021/08/02 03:58:06;;;;;;;14.73;13.10;;;13.50;99.90;;;;;;5014134;28;20206;-77
2021/08/02 04:00:32;;;;;;;14.20;12.90;;;13.40;99.90;;;;;;5012216;28;20206;-76
2021/08/02 04:02:57;;;;;;;14.07;12.73;;;13.40;99.90;;;;;;4990770;28;20184;-77
2021/08/02 04:05:23;;;;;;;15.70;14.03;;;13.40;99.90;;;;;;4996608;28;20555;-77
2021/08/02 04:07:49;;;;;;;16.07;11.90;;;13.40;99.90;;;;;;5012498;28;20208;-78
2021/08/02 04:10:15;;;;;;;14.20;12.73;;;13.40;99.90;;;;;;5012067;28;20654;-76
2021/08/02 04:12:41;;;;;;;14.60;12.73;;;13.40;99.90;;;;;;5012487;28;20178;-79
2021/08/02 04:15:08;;;;;;;15.10;12.47;;;13.40;99.90;;;;;;5010697;28;20186;-78
2021/08/02 04:17:35;;;;;;;18.13;12.30;;;13.40;99.90;;;;;;5010238;28;20221;-77
2021/08/02 04:20:01;;;;;;;15.43;12.97;;;13.40;99.90;;;;;;5009815;28;20201;-78
2021/08/02 04:22:26;;;;;;;13.07;11.77;;;13.40;99.90;;;;;;5010044;28;20265;-78
2021/08/02 04:24:52;;;;;;;13.33;12.07;;;13.30;99.90;;;;;;5009752;28;20237;-77
2021/08/02 04:27:17;;;;;;;13.40;12.20;;;13.40;99.90;;;;;;5011621;28;20203;-77
2021/08/02 04:29:43;;;;;;;13.80;12.60;;;13.30;99.90;;;;;;4996680;28;20202;-77
2021/08/02 04:32:10;;;;;;;14.97;13.27;;;13.30;99.90;;;;;;5002538;28;20183;-77
2021/08/02 04:34:35;;;;;;;14.37;12.83;;;13.30;99.90;;;;;;5008200;28;20261;-78
2021/08/02 04:37:01;;;;;;;12.37;11.27;;;13.30;99.90;;;;;;5005901;28;20218;-77
2021/08/02 04:39:26;;;;;;;12.47;10.57;;;13.20;99.90;;;;;;5011171;28;20268;-77
2021/08/02 04:41:52;;;;;;;13.20;10.53;;;13.20;99.90;;;;;;5011376;28;20190;-77
2021/08/02 04:44:18;;;;;;;12.87;11.63;;;13.20;99.90;;;;;;5011334;28;20185;-78
2021/08/02 04:46:43;;;;;;;11.70;10.57;;;13.20;99.90;;;;;;5011126;28;20206;-77
2021/08/02 04:49:09;;;;;;;11.77;10.60;;;13.30;99.90;;;;;;5011188;28;20182;-78
2021/08/02 04:51:35;;;;;;;12.30;10.87;;;13.30;99.90;;;;;;5002388;28;20182;-77
2021/08/02 04:54:00;;;;;;;12.23;10.30;;;13.30;99.90;;;;;;5012401;28;20240;-77
2021/08/02 04:56:26;;;;;;;12.30;9.93;;;13.40;99.90;;;;;;5009710;28;20238;-76
2021/08/02 04:58:51;;;;;;;13.07;9.97;;;13.40;99.90;;;;;;5010467;28;20178;-77
2021/08/02 05:01:17;;;;;;;11.70;10.60;;;13.40;99.90;;;;;;5011034;28;20181;-77
2021/08/02 05:03:43;;;;;;;10.33;9.43;;;13.40;99.90;;;;;;5010958;28;20207;-78
2021/08/02 05:06:09;;;;;;;17.40;9.43;;;13.40;99.90;;;;;;5009420;28;20179;-79
2021/08/02 05:08:34;;;;;;;11.97;9.57;;;13.40;99.90;;;;;;5011059;28;20174;-79
2021/08/02 05:11:00;;;;;;;14.07;9.13;;;13.40;99.90;;;;;;5011730;28;20662;-77
2021/08/02 05:13:25;;;;;;;10.67;9.77;;;13.40;99.90;;;;;;5011704;28;20205;-78
2021/08/02 05:15:51;;;;;;;9.93;8.93;;;13.40;99.90;;;;;;5011023;28;20186;-77
2021/08/02 05:18:17;;;;;;;15.03;8.93;;;13.30;99.90;;;;;;5010847;28;20217;-77
2021/08/02 05:20:43;;;;;;;12.37;9.90;;;13.30;99.90;;;;;;5006014;28;20247;-76
2021/08/02 05:23:10;;;;;;;11.13;10.07;;;13.40;99.90;;;;;;5012953;28;20189;-76
2021/08/02 05:25:38;;;;;;;12.60;9.33;;;13.40;99.90;;;;;;5012981;28;20172;-74
2021/08/02 05:28:04;;;;;;;10.97;9.90;;;13.50;99.90;;;;;;5011189;28;20669;-78
2021/08/02 05:30:30;;;;;;;10.90;9.40;;;13.40;99.90;;;;;;5010220;28;20186;-73
2021/08/02 05:32:55;;;;;;;10.33;9.37;;;13.40;99.90;;;;;;5012901;28;20546;-76
2021/08/02 05:35:21;;;;;;;15.97;10.97;;;13.40;99.90;;;;;;5014865;28;20556;-74
2021/08/02 05:37:47;;;;;;;16.73;10.20;;;13.50;99.90;;;;;;5011830;28;20202;-77
2021/08/02 05:40:13;;;;;;;14.17;10.87;;;13.50;99.90;;;;;;5009517;28;20195;-76
2021/08/02 05:42:39;;;;;;;13.00;11.63;;;13.60;99.90;;;;;;5002136;28;20322;-77
2021/08/02 05:45:06;;;;;;;15.47;12.47;;;13.60;99.90;;;;;;5007113;28;20171;-76
2021/08/02 05:47:33;;;;;;;20.53;17.60;;;13.60;99.90;;;;;;5011838;28;20195;-74
2021/08/02 05:49:59;;;;;;;27.07;20.03;;;13.50;99.90;;;;;;5012176;28;20642;-77
2021/08/02 05:52:25;;;;;;;27.47;21.10;;;13.60;99.90;;;;;;5012227;28;20182;-77
2021/08/02 05:54:50;;;;;;;37.10;27.60;;;13.70;99.90;;;;;;5011468;28;20658;-77
2021/08/02 05:57:20;;;;;;;41.43;29.83;;;13.70;99.90;;;;;;5012526;28;20204;-77
2021/08/02 05:59:46;;;;;;;49.10;32.57;;;13.70;99.90;;;;;;5011137;28;20285;-76
2021/08/02 06:02:12;;;;;;;43.30;30.53;;;13.80;99.90;;;;;;5012496;28;20253;-77
2021/08/02 06:04:37;;;;;;;43.47;31.57;;;13.80;99.90;;;;;;5011198;28;20175;-76
2021/08/02 06:07:03;;;;;;;43.40;32.60;;;13.90;99.90;;;;;;5012371;28;20665;-76
2021/08/02 06:09:29;;;;;;;39.80;30.43;;;13.90;99.90;;;;;;5012492;28;20627;-77
2021/08/02 06:11:54;;;;;;;45.57;32.57;;;13.90;99.90;;;;;;5014980;28;20183;-77
2021/08/02 06:14:20;;;;;;;43.37;31.73;;;14.00;99.90;;;;;;5011126;28;20183;-77
2021/08/02 06:16:46;;;;;;;39.07;30.43;;;14.00;99.90;;;;;;5012332;28;20219;-77
2021/08/02 06:19:11;;;;;;;45.93;30.10;;;14.10;99.90;;;;;;5015907;28;20287;-77
2021/08/02 06:21:37;;;;;;;40.10;30.43;;;14.10;99.90;;;;;;5015999;28;20183;-77
2021/08/02 06:24:03;;;;;;;43.63;31.43;;;14.20;99.90;;;;;;5014835;28;20189;-77
2021/08/02 06:26:30;;;;;;;39.97;30.70;;;14.20;99.90;;;;;;5012994;28;20247;-77
2021/08/02 06:28:56;;;;;;;39.53;30.07;;;14.30;99.90;;;;;;5004558;28;20187;-77
2021/08/02 06:31:22;;;;;;;39.53;29.83;;;14.30;99.90;;;;;;5010432;28;20634;-77
2021/08/02 06:33:48;;;;;;;40.87;30.60;;;14.30;99.90;;;;;;5000684;28;20182;-77
2021/08/02 06:36:17;;;;;;;42.90;30.67;;;14.40;99.90;;;;;;5007071;28;20265;-78
2021/08/02 06:38:43;;;;;;;42.10;31.63;;;14.50;99.90;;;;;;5007934;28;20191;-77
2021/08/02 06:41:08;;;;;;;39.07;29.80;;;14.50;99.90;;;;;;5004549;28;20210;-77
2021/08/02 06:43:34;;;;;;;41.37;31.40;;;14.50;99.90;;;;;;4997281;28;20187;-77
2021/08/02 06:46:00;;;;;;;38.70;30.17;;;14.60;99.90;;;;;;5005643;28;20187;-77
2021/08/02 06:48:26;;;;;;;44.87;32.43;;;14.60;99.90;;;;;;5008812;28;20187;-76
2021/08/02 06:50:51;;;;;;;40.23;31.53;;;14.60;99.90;;;;;;4993418;28;20184;-77
2021/08/02 06:53:18;;;;;;;39.47;31.33;;;14.60;99.90;;;;;;4994164;28;20183;-77
2021/08/02 06:55:44;;;;;;;40.33;30.73;;;14.70;99.90;;;;;;4990569;28;20183;-76
2021/08/02 06:58:10;;;;;;;41.70;32.07;;;14.60;99.90;;;;;;5006508;28;20286;-76
2021/08/02 07:00:35;;;;;;;43.73;33.60;;;14.60;99.90;;;;;;4996160;28;20235;-77
2021/08/02 07:03:01;;;;;;;44.73;33.47;;;14.50;99.90;;;;;;5001843;28;20192;-75
2021/08/02 07:05:30;;;;;;;43.43;32.67;;;14.50;99.90;;;;;;5000385;28;20596;-76
2021/08/02 07:07:55;;;;;;;38.07;31.33;;;14.60;99.90;;;;;;5005934;28;20277;-77
2021/08/02 07:10:21;;;;;;;42.83;32.93;;;14.70;99.90;;;;;;5005160;28;20187;-77
2021/08/02 07:12:47;;;;;;;52.80;33.07;;;14.70;99.90;;;;;;5009048;28;20254;-78
2021/08/02 07:15:12;;;;;;;48.77;33.30;;;14.70;99.90;;;;;;4990875;28;20188;-77
2021/08/02 07:17:38;;;;;;;39.63;30.43;;;14.80;99.90;;;;;;5000402;28;20227;-78
2021/08/02 07:20:04;;;;;;;42.90;31.53;;;14.70;99.90;;;;;;5009760;28;20199;-76
2021/08/02 07:22:30;;;;;;;46.00;32.10;;;14.70;99.90;;;;;;5006595;28;20664;-76
2021/08/02 07:24:55;;;;;;;42.03;32.27;;;14.70;99.90;;;;;;4992635;28;20266;-75
2021/08/02 07:27:21;;;;;;;34.10;28.53;;;14.80;99.90;;;;;;4990511;28;20199;-77
2021/08/02 07:29:47;;;;;;;37.13;29.00;;;14.70;99.90;;;;;;5008465;28;20191;-77
2021/08/02 07:32:12;;;;;;;35.50;28.97;;;14.80;99.90;;;;;;5000514;28;20205;-76
2021/08/02 07:34:38;;;;;;;34.77;28.23;;;14.90;99.90;;;;;;5000461;28;20642;-77
2021/08/02 07:37:04;;;;;;;34.23;27.70;;;15.00;99.90;;;;;;4982722;28;20210;-75
2021/08/02 07:39:30;;;;;;;31.70;25.53;;;15.10;99.90;;;;;;5003864;28;20214;-76
2021/08/02 07:41:56;;;;;;;31.10;26.03;;;15.30;99.90;;;;;;5011293;28;20176;-75
2021/08/02 07:44:22;;;;;;;28.27;24.73;;;15.30;99.90;;;;;;4990974;28;20179;-77
2021/08/02 07:46:48;;;;;;;32.40;25.90;;;15.40;99.90;;;;;;5012425;28;20226;-75
2021/08/02 07:49:13;;;;;;;27.60;24.40;;;15.40;99.90;;;;;;4996118;28;20522;-76
2021/08/02 07:51:39;;;;;;;25.57;22.93;;;15.40;99.90;;;;;;5001096;28;20206;-76
2021/08/02 07:54:05;;;;;;;32.13;24.47;;;15.30;99.90;;;;;;5011967;28;20666;-76
2021/08/02 07:56:32;;;;;;;27.07;23.07;;;15.50;99.90;;;;;;5006101;28;20282;-76
2021/08/02 07:58:58;;;;;;;25.63;22.70;;;15.50;99.90;;;;;;4992865;28;20183;-78
2021/08/02 08:01:24;;;;;;;28.57;23.57;;;15.60;99.90;;;;;;5011886;28;20180;-76
2021/08/02 08:03:50;;;;;;;23.77;20.20;;;15.60;99.90;;;;;;5003329;28;20685;-77
2021/08/02 08:06:15;;;;;;;22.40;20.00;;;15.70;99.90;;;;;;5006631;28;20174;-75
2021/08/02 08:08:41;;;;;;;23.70;20.73;;;15.70;99.90;;;;;;5005131;28;20199;-76
2021/08/02 08:11:09;;;;;;;22.10;19.80;;;15.70;99.90;;;;;;5008858;28;20202;-75
2021/08/02 08:13:36;;;;;;;20.97;18.80;;;15.60;99.90;;;;;;5000612;28;20179;-76
2021/08/02 08:16:01;;;;;;;24.17;20.87;;;15.70;99.90;;;;;;4996362;28;20271;-76
2021/08/02 08:18:29;;;;;;;22.07;19.70;;;15.80;99.90;;;;;;5004633;28;20275;-76
2021/08/02 08:20:55;;;;;;;21.87;19.20;;;15.80;99.90;;;;;;5005665;28;20191;-75
2021/08/02 08:23:20;;;;;;;18.63;16.83;;;15.90;99.90;;;;;;4994666;28;20175;-76
2021/08/02 08:25:46;;;;;;;19.97;17.87;;;15.80;99.90;;;;;;5004480;28;20179;-76
2021/08/02 08:28:12;;;;;;;21.77;19.10;;;15.80;99.90;;;;;;5004355;28;20204;-76
2021/08/02 08:30:38;;;;;;;21.83;19.30;;;15.80;99.90;;;;;;5009613;28;20225;-77
2021/08/02 08:33:03;;;;;;;23.13;18.80;;;16.00;99.90;;;;;;5006576;28;20197;-75
2021/08/02 08:35:29;;;;;;;21.70;17.50;;;16.10;99.90;;;;;;5012772;28;20645;-75
2021/08/02 08:37:55;;;;;;;21.53;17.93;;;16.00;99.90;;;;;;5007914;28;20611;-76
2021/08/02 08:40:22;;;;;;;21.70;18.40;;;16.00;99.90;;;;;;5011477;28;20207;-76
2021/08/02 08:42:50;;;;;;;20.97;18.13;;;16.20;99.90;;;;;;5011232;28;20186;-76
2021/08/02 08:45:15;;;;;;;20.83;18.77;;;16.20;99.90;;;;;;5001213;28;20186;-76
2021/08/02 08:47:41;;;;;;;19.43;17.30;;;16.30;99.90;;;;;;5010956;28;20191;-77
2021/08/02 08:50:08;;;;;;;17.77;16.17;;;16.40;99.90;;;;;;5010110;28;20532;-77
2021/08/02 08:52:36;;;;;;;18.60;16.80;;;16.40;99.90;;;;;;5010032;28;20646;-76
2021/08/02 08:55:09;;;;;;;19.20;17.17;;;16.50;99.90;;;;;;5009999;28;20557;-77
2021/08/02 08:57:35;;;;;;;19.07;16.40;;;16.60;99.90;;;;;;5010747;28;20683;-75
2021/08/02 09:00:01;;;;;;;19.70;17.13;;;16.70;99.90;;;;;;5013309;28;20271;-76
2021/08/02 09:02:28;;;;;;;16.97;15.20;;;16.80;99.90;;;;;;5011814;28;20181;-76
2021/08/02 09:04:56;;;;;;;19.77;14.83;;;16.90;99.90;;;;;;5013256;28;20637;-76
2021/08/02 09:07:32;;;;;;;15.30;13.93;;;17.00;99.90;;;;;;5013038;28;20221;-76
2021/08/02 09:09:59;;;;;;;15.40;13.90;;;17.10;99.90;;;;;;5013220;28;20175;-76
2021/08/02 09:12:25;;;;;;;16.00;13.70;;;17.10;99.90;;;;;;5012313;28;20258;-76
2021/08/02 09:15:00;;;;;;;14.60;13.10;;;17.10;99.90;;;;;;5013061;28;20226;-75
2021/08/02 09:17:37;;;;;;;14.47;12.97;;;17.20;99.90;;;;;;5011452;28;20261;-76
2021/08/02 09:20:06;;;;;;;12.73;11.73;;;17.20;99.90;;;;;;5012914;28;20252;-76
2021/08/02 09:22:36;;;;;;;12.80;11.13;;;17.20;99.90;;;;;;5013012;28;20179;-76
2021/08/02 09:25:12;;;;;;;11.20;10.20;;;17.30;99.90;;;;;;5012953;28;20208;-76
2021/08/02 09:27:40;;;;;;;10.63;9.57;;;17.40;99.90;;;;;;5012804;28;20195;-76
2021/08/02 09:30:16;;;;;;;9.57;8.57;;;17.40;99.90;;;;;;5013068;28;20262;-77
2021/08/02 09:33:08;;;;;;;9.40;8.60;;;17.40;99.90;;;;;;5013045;28;20213;-76
2021/08/02 09:35:47;;;;;;;8.90;7.03;;;17.50;99.90;;;;;;5013059;28;20245;-76
2021/08/02 09:38:14;;;;;;;7.90;7.20;;;17.50;99.90;;;;;;5012697;28;20195;-77
2021/08/02 09:40:39;;;;;;;9.03;8.13;;;17.70;99.90;;;;;;5004500;28;21660;-76
2021/08/02 09:43:05;;;;;;;9.53;8.63;;;17.70;99.90;;;;;;5011278;28;20218;-75
2021/08/02 09:45:43;;;;;;;8.73;7.97;;;17.80;99.90;;;;;;5011251;28;20176;-76
2021/08/02 09:48:09;;;;;;;8.47;7.77;;;18.00;99.90;;;;;;5012700;28;20556;-75
2021/08/02 09:50:37;;;;;;;9.00;8.27;;;;;;;;;;5011322;28;20182;-76
2021/08/02 09:53:03;;;;;;;8.03;7.30;;;18.40;99.90;;;;;;5015413;28;20719;-75
2021/08/02 09:55:28;;;;;;;8.47;7.83;;;18.40;99.90;;;;;;5016362;28;20270;-76
2021/08/02 09:57:56;;;;;;;9.73;8.67;;;18.40;99.90;;;;;;5016374;28;20302;-75
2021/08/02 10:00:22;;;;;;;8.03;7.37;;;18.40;99.90;;;;;;5016096;28;20191;-75
2021/08/02 10:02:53;;;;;;;9.13;8.33;;;18.40;99.90;;;;;;5015067;28;20182;-75
2021/08/02 10:05:20;;;;;;;8.83;8.03;;;18.60;99.90;;;;;;5016410;28;20184;-75
2021/08/02 10:07:47;;;;;;;7.57;6.77;;;18.90;99.90;;;;;;5016351;28;20685;-75
2021/08/02 10:10:15;;;;;;;7.37;6.77;;;19.00;99.90;;;;;;5016322;28;20182;-74
2021/08/02 10:12:48;;;;;;;7.37;6.77;;;19.20;99.90;;;;;;5016215;28;20190;-75
2021/08/02 10:15:17;;;;;;;6.53;6.03;;;19.10;99.90;;;;;;5007344;28;20234;-75
2021/08/02 10:17:52;;;;;;;6.53;5.93;;;19.20;99.90;;;;;;5014473;28;20245;-75
2021/08/02 10:20:23;;;;;;;6.70;6.10;;;19.30;99.90;;;;;;5015855;28;20202;-75
2021/08/02 10:22:49;;;;;;;6.57;5.97;;;19.50;99.90;;;;;;5014726;28;20175;-75
2021/08/02 10:25:15;;;;;;;6.07;5.57;;;19.60;99.90;;;;;;5047913;28;20258;-75
2021/08/02 10:27:42;;;;;;;6.30;5.70;;;19.70;99.90;;;;;;5011578;28;20309;-75
2021/08/02 10:30:28;;;;;;;6.97;6.27;;;19.90;99.90;;;;;;5006253;28;20179;-76
2021/08/02 10:32:57;;;;;;;6.67;6.07;;;19.80;99.90;;;;;;5012265;28;20174;-75
2021/08/02 10:35:32;;;;;;;6.53;6.03;;;19.80;99.90;;;;;;5015821;28;20182;-75
2021/08/02 10:38:03;;;;;;;6.00;5.57;;;19.70;99.90;;;;;;5015546;28;20674;-75
2021/08/02 10:40:29;;;;;;;5.37;4.90;;;19.80;99.90;;;;;;5015351;28;20206;-76
2021/08/02 10:42:55;;;;;;;5.50;5.00;;;20.10;99.90;;;;;;5015194;28;20615;-75
2021/08/02 10:45:33;;;;;;;5.23;4.70;;;20.10;99.90;;;;;;5015420;28;20290;-75
2021/08/02 10:47:59;;;;;;;5.07;4.67;;;20.10;99.90;;;;;;5015269;28;20202;-75
2021/08/02 10:50:28;;;;;;;4.33;4.03;;;20.20;99.90;;;;;;5015679;28;20257;-75
2021/08/02 10:52:55;;;;;;;5.90;4.33;;;20.20;99.90;;;;;;5011768;28;20679;-77
2021/08/02 10:55:21;;;;;;;4.07;3.77;;;20.40;99.90;;;;;;5003999;28;20188;-76
2021/08/02 10:58:00;;;;;;;3.73;3.33;;;20.50;99.90;;;;;;4998654;28;20199;-76
2021/08/02 11:00:27;;;;;;;4.27;3.87;;;20.60;99.90;;;;;;5011399;28;20217;-76
2021/08/02 11:02:58;;;;;;;4.87;4.47;;;20.70;99.90;;;;;;5007182;28;20280;-76
2021/08/02 11:05:28;;;;;;;3.93;3.60;;;20.50;99.90;;;;;;4995376;28;20194;-76
2021/08/02 11:08:02;;;;;;;4.10;3.70;;;20.50;99.90;;;;;;5011142;28;20214;-75
2021/08/02 11:10:28;;;;;;;3.23;2.93;;;20.60;99.90;;;;;;5010034;28;20694;-76
2021/08/02 11:12:54;;;;;;;3.03;2.73;;;20.60;99.90;;;;;;5012000;28;20226;-77
2021/08/02 11:15:19;;;;;;;2.97;2.77;;;20.60;99.90;;;;;;4998427;28;20595;-76
2021/08/02 11:17:54;;;;;;;3.57;3.00;;;20.90;99.90;;;;;;4993050;28;20249;-76
2021/08/02 11:20:21;;;;;;;2.73;2.53;;;21.10;99.90;;;;;;4995637;28;20194;-76
2021/08/02 11:22:50;;;;;;;2.67;2.47;;;21.20;99.90;;;;;;5011330;28;20225;-76
2021/08/02 11:25:24;;;;;;;2.77;2.50;;;21.10;99.90;;;;;;5024554;28;20175;-76
2021/08/02 11:27:55;;;;;;;3.63;3.33;;;20.90;99.90;;;;;;4998424;28;20198;-77
2021/08/02 11:30:22;;;;;;;3.53;3.20;;;20.90;99.90;;;;;;4995281;28;20221;-77
2021/08/02 11:32:48;;;;;;;3.17;2.97;;;20.80;99.90;;;;;;5031592;28;20229;-76
2021/08/02 11:35:15;;;;;;;4.40;3.10;;;20.70;99.90;;;;;;4993773;28;20179;-76
2021/08/02 11:37:48;;;;;;;3.67;3.37;;;20.60;99.90;;;;;;4994534;28;20199;-76
2021/08/02 11:40:14;;;;;;;3.43;3.20;;;20.50;99.90;;;;;;5011135;28;20274;-76
2021/08/02 11:42:42;;;;;;;4.10;3.70;;;20.50;99.90;;;;;;5009669;28;20700;-76
2021/08/02 11:45:08;;;;;;;4.93;3.30;;;20.50;99.90;;;;;;5014121;28;20171;-76
2021/08/02 11:47:40;;;;;;;3.97;3.10;;;20.60;99.90;;;;;;5007736;28;20561;-76
2021/08/02 11:50:07;;;;;;;5.10;3.40;;;20.80;99.90;;;;;;4998985;28;20549;-77
2021/08/02 11:52:32;;;;;;;4.87;2.53;;;21.00;99.90;;;;;;5010192;28;20182;-77
2021/08/02 11:55:01;;;;;;;3.80;2.20;;;20.80;99.90;;;;;;5005974;28;20531;-78
2021/08/02 11:57:27;;;;;;;1.50;1.40;;;20.70;99.90;;;;;;5003581;28;20206;-76
2021/08/02 11:59:57;;;;;;;2.30;2.10;;;20.80;99.90;;;;;;4995528;28;20199;-77
2021/08/02 12:02:35;;;;;;;1.40;1.30;;;21.00;99.90;;;;;;5007508;28;20175;-78
2021/08/02 12:05:03;;;;;;;2.10;1.90;;;21.10;99.90;;;;;;5011419;28;20175;-76
2021/08/02 12:07:31;;;;;;;3.07;1.30;;;21.30;99.90;;;;;;5005925;28;20195;-76
2021/08/02 12:10:07;;;;;;;1.50;1.40;;;21.50;99.90;;;;;;5003244;28;20195;-77
2021/08/02 12:12:33;;;;;;;1.60;1.50;;;21.70;99.90;;;;;;5006857;28;20189;-77
2021/08/02 12:15:05;;;;;;;4.33;1.63;;;21.60;99.90;;;;;;5001810;28;20183;-76
2021/08/02 12:17:31;;;;;;;1.37;1.27;;;21.70;99.90;;;;;;5013021;28;20214;-76
2021/08/02 12:19:57;;;;;;;2.17;2.00;;;21.80;99.90;;;;;;4996438;28;20192;-76
2021/08/02 12:22:23;;;;;;;1.70;1.50;;;21.80;99.90;;;;;;5005826;28;20176;-77
2021/08/02 12:24:53;;;;;;;2.20;1.53;;;22.00;99.90;;;;;;4995723;28;20551;-77
2021/08/02 12:27:19;;;;;;;2.30;1.50;;;22.20;99.90;;;;;;4989601;28;20204;-77
2021/08/02 12:30:03;;;;;;;2.23;1.60;;;22.40;99.90;;;;;;5027836;28;20665;-77
2021/08/02 12:32:45;;;;;;;4.90;1.50;;;22.30;99.90;;;;;;4999061;28;20211;-76
2021/08/02 12:35:15;;;;;;;2.20;1.47;;;22.50;99.90;;;;;;5023073;28;20187;-77
2021/08/02 12:37:43;;;;;;;1.60;1.50;;;22.50;99.90;;;;;;5002644;28;20258;-77
2021/08/02 12:40:11;;;;;;;1.90;1.50;;;22.50;99.90;;;;;;4990644;28;20222;-76